Time;durP1;ratioP1;P1;durP2;ratioP2;P2;SDS_P1;SDS_P2;PMS_P1;PMS_P2;Temp;Humidity;BMP_temperature;BMP_pressure;BME280_temperature;BME280_humidity;BME280_pressure;Samples;Min_cycle;Max_cycle;Signal;HPM_P1;HPM_P2
2023/06/16 00:00:11;;;;;;;16.20;14.80;;;;;;;13.73;81.12;97795.91;107197;1275;25468;-78
2023/06/16 00:03:01;;;;;;;13.30;12.10;;;;;;;13.69;81.25;97794.02;107123;1275;22528;-79
2023/06/16 00:05:29;;;;;;;12.60;11.50;;;;;;;13.58;82.71;97789.23;107114;1275;22599;-79
2023/06/16 00:08:02;;;;;;;12.10;10.90;;;;;;;13.46;83.01;97788.02;107146;1275;22540;-79
2023/06/16 00:10:30;;;;;;;13.60;12.50;;;;;;;13.35;82.88;97788.09;107194;1275;24232;-79
2023/06/16 00:12:58;;;;;;;14.50;13.20;;;;;;;13.31;82.54;97783.17;107167;1263;22599;-80
2023/06/16 00:15:26;;;;;;;14.30;13.10;;;;;;;13.34;82.63;97777.52;107217;1253;25481;-80
2023/06/16 00:17:56;;;;;;;13.50;12.20;;;;;;;13.33;82.93;97776.63;107217;1275;22578;-79
2023/06/16 00:20:25;;;;;;;13.70;12.50;;;;;;;13.18;83.26;97769.66;107241;1275;24880;-79
2023/06/16 00:22:54;;;;;;;13.30;11.90;;;;;;;13.02;83.58;97772.96;107217;1275;23387;-79
2023/06/16 00:25:23;;;;;;;12.10;11.00;;;;;;;12.91;83.37;97777.66;107204;1275;22593;-79
2023/06/16 00:27:51;;;;;;;12.00;10.90;;;;;;;12.85;83.23;97775.27;107204;1275;22546;-79
2023/06/16 00:30:19;;;;;;;14.10;12.90;;;;;;;12.76;82.66;97777.90;107176;1275;22615;-79
2023/06/16 00:32:48;;;;;;;13.20;11.90;;;;;;;12.65;82.93;97776.77;107255;1275;25322;-78
2023/06/16 00:35:16;;;;;;;13.20;12.00;;;;;;;12.60;83.13;97777.83;107198;1275;22740;-79
2023/06/16 00:37:44;;;;;;;13.30;12.10;;;;;;;12.57;83.49;97778.39;106629;1275;22633;-79
2023/06/16 00:40:12;;;;;;;13.60;12.40;;;;;;;12.56;83.60;97781.84;106903;1275;22586;-79
2023/06/16 00:42:40;;;;;;;13.70;12.50;;;;;;;12.62;84.31;97780.31;107193;1275;26853;-78
2023/06/16 00:45:09;;;;;;;12.70;11.60;;;;;;;12.78;84.54;97782.35;106941;1275;25321;-79
2023/06/16 00:47:37;;;;;;;12.40;11.20;;;;;;;12.86;83.98;97778.96;106667;1275;24275;-78
2023/06/16 00:50:06;;;;;;;14.30;13.00;;;;;;;12.74;84.68;97777.77;106886;1275;25604;-79
2023/06/16 00:52:37;;;;;;;14.70;13.20;;;;;;;12.58;85.65;97777.67;107216;1275;22534;-79
2023/06/16 00:55:08;;;;;;;13.40;12.20;;;;;;;12.40;86.08;97778.73;107233;1275;24111;-79
2023/06/16 00:57:39;;;;;;;12.00;10.90;;;;;;;12.24;85.78;97775.14;107250;1275;24172;-79
2023/06/16 01:00:11;;;;;;;13.00;11.90;;;;;;;12.20;85.62;97773.86;107264;1275;25258;-80
2023/06/16 01:02:39;;;;;;;13.50;12.30;;;;;;;12.31;85.82;97773.98;107032;1275;24260;-80
2023/06/16 01:05:08;;;;;;;12.20;11.10;;;;;;;12.40;85.50;97771.86;107249;1275;23895;-80
2023/06/16 01:08:11;;;;;;;13.80;12.60;;;;;;;12.35;86.97;97770.55;107248;1275;22532;-80
2023/06/16 01:10:55;;;;;;;15.10;13.70;;;;;;;12.16;87.28;97770.86;107205;1275;22535;-80
2023/06/16 01:13:52;;;;;;;13.20;12.20;;;;;;;11.97;87.09;97767.73;107049;1275;22593;-79
2023/06/16 01:16:25;;;;;;;13.50;12.10;;;;;;;11.81;87.37;97765.88;106907;1275;22992;-79
2023/06/16 01:18:55;;;;;;;12.60;11.30;;;;;;;11.67;87.44;97757.39;107023;1275;23016;-80
2023/06/16 01:21:48;;;;;;;12.40;11.30;;;;;;;11.57;87.63;97760.59;107008;1275;25532;-81
2023/06/16 01:24:23;;;;;;;15.30;14.10;;;;;;;11.52;89.24;97765.03;106933;1275;22523;-79
2023/06/16 01:26:57;;;;;;;15.50;14.10;;;;;;;11.49;89.94;97759.50;106868;1275;25245;-80
2023/06/16 01:29:27;;;;;;;14.40;13.00;;;;;;;11.44;90.27;97756.31;107270;1275;23425;-79
2023/06/16 01:32:00;;;;;;;15.40;13.90;;;;;;;11.40;90.93;97756.73;107310;1275;25464;-79
2023/06/16 01:34:29;;;;;;;14.30;13.00;;;;;;;11.32;91.46;97757.52;107199;1275;23000;-80
2023/06/16 01:37:00;;;;;;;15.10;13.80;;;;;;;11.22;90.92;97758.10;107134;1275;23029;-80
2023/06/16 01:39:29;;;;;;;15.70;14.30;;;;;;;11.15;90.63;97757.51;107083;1275;23180;-79
2023/06/16 01:41:58;;;;;;;14.70;13.40;;;;;;;11.09;90.34;97761.46;106863;1275;24225;-78
2023/06/16 01:44:28;;;;;;;22.20;14.70;;;;;;;11.03;90.79;97761.96;107257;1275;25217;-79
2023/06/16 01:46:56;;;;;;;15.60;14.30;;;;;;;11.00;90.71;97761.18;107279;1275;22527;-80
2023/06/16 01:49:25;;;;;;;16.80;15.20;;;;;;;10.99;90.77;97761.32;106886;1275;22537;-80
2023/06/16 01:51:53;;;;;;;14.90;13.70;;;;;;;10.97;90.43;97760.89;106832;1276;25577;-80
2023/06/16 01:54:21;;;;;;;14.00;12.80;;;;;;;10.93;90.14;97758.54;106944;1275;25347;-80
2023/06/16 01:56:49;;;;;;;13.50;12.30;;;;;;;10.94;90.14;97762.56;106937;1275;22666;-81
2023/06/16 01:59:17;;;;;;;14.00;12.80;;;;;;;11.07;90.73;97763.27;106774;1276;22658;-80
2023/06/16 02:01:51;;;;;;;15.70;14.10;;;;;;;11.13;90.24;97765.42;106926;1275;22532;-80
2023/06/16 02:04:24;;;;;;;16.60;15.10;;;;;;;11.08;90.60;97762.62;107266;1275;25216;-80
2023/06/16 02:07:03;;;;;;;16.50;15.20;;;;;;;10.96;90.39;97760.42;107173;1275;22785;-79
2023/06/16 02:09:33;;;;;;;15.30;13.90;;;;;;;10.83;90.51;97758.86;106938;1275;24213;-79
2023/06/16 02:12:02;;;;;;;15.30;14.10;;;;;;;10.81;91.18;97756.11;106940;1275;23020;-79
2023/06/16 02:14:35;;;;;;;14.10;12.90;;;;;;;10.77;91.15;97756.14;106812;1276;24287;-79
2023/06/16 02:17:05;;;;;;;13.80;12.60;;;;;;;10.74;91.31;97754.97;106850;1276;22794;-79
2023/06/16 02:19:34;;;;;;;14.00;12.40;;;;;;;10.71;92.01;97756.27;106840;1276;25341;-79
2023/06/16 02:22:02;;;;;;;13.60;12.40;;;;;;;10.68;92.39;97752.67;106837;1276;24362;-80
2023/06/16 02:24:30;;;;;;;15.00;13.70;;;;;;;10.66;93.66;97750.27;107148;1275;22666;-79
2023/06/16 02:26:58;;;;;;;16.80;15.00;;;;;;;10.63;94.07;97747.13;107185;1275;22541;-80
2023/06/16 02:29:26;;;;;;;15.00;13.60;;;;;;;10.63;93.23;97747.06;107162;1275;22535;-80
2023/06/16 02:31:54;;;;;;;13.70;12.60;;;;;;;10.61;93.97;97745.39;106810;1275;24245;-80
2023/06/16 02:34:22;;;;;;;14.60;13.30;;;;;;;10.58;93.69;97745.34;107191;1275;22573;-81
2023/06/16 02:36:51;;;;;;;15.40;13.90;;;;;;;10.53;94.10;97745.35;106696;1276;22659;-79
2023/06/16 02:39:21;;;;;;;13.50;12.30;;;;;;;10.47;95.14;97747.07;106976;1275;22517;-79
2023/06/16 02:41:50;;;;;;;14.80;13.30;;;;;;;10.45;95.28;97748.52;106965;1276;23492;-79
2023/06/16 02:44:19;;;;;;;14.00;12.80;;;;;;;10.45;95.16;97744.92;106802;1276;25661;-80
2023/06/16 02:46:47;;;;;;;14.80;13.60;;;;;;;10.41;95.84;97744.79;106944;1275;23401;-81
2023/06/16 02:49:16;;;;;;;13.90;12.60;;;;;;;10.34;96.22;97748.10;107258;1276;22518;-79
2023/06/16 02:51:45;;;;;;;13.30;12.10;;;;;;;10.26;96.21;97751.70;107526;1275;22463;-79
2023/06/16 02:54:13;;;;;;;12.90;11.70;;;;;;;10.19;95.85;97747.94;107699;1275;22629;-79
2023/06/16 02:56:41;;;;;;;13.50;12.30;;;;;;;10.15;95.97;97746.14;107083;1275;22540;-79
2023/06/16 02:59:10;;;;;;;12.50;11.50;;;;;;;10.17;95.92;97748.99;106983;1275;22530;-79
2023/06/16 03:01:39;;;;;;;13.40;11.90;;;;;;;10.25;95.76;97751.49;106969;1275;22643;-80
2023/06/16 03:04:07;;;;;;;13.40;12.20;;;;;;;10.32;96.04;97749.31;107103;1275;25651;-81
2023/06/16 03:06:51;;;;;;;12.80;11.60;;;;;;;10.41;95.94;97748.12;107141;1275;22647;-81
2023/06/16 03:09:42;;;;;;;13.60;12.50;;;;;;;10.52;95.26;97744.55;107225;1275;22524;-80
2023/06/16 03:12:11;;;;;;;13.70;12.50;;;;;;;10.61;94.80;97746.13;106981;1275;23332;-81
2023/06/16 03:14:48;;;;;;;15.00;13.50;;;;;;;10.60;94.11;97746.52;106968;1275;25014;-82
2023/06/16 03:17:21;;;;;;;13.20;12.00;;;;;;;10.63;94.48;97751.06;107044;1275;22647;-81
2023/06/16 03:19:51;;;;;;;13.90;12.60;;;;;;;10.66;94.35;97752.54;107215;1275;22744;-80
2023/06/16 03:22:25;;;;;;;13.80;12.60;;;;;;;10.70;94.52;97755.98;107054;1275;22534;-79
2023/06/16 03:24:54;;;;;;;14.90;13.40;;;;;;;10.73;94.31;97756.98;106698;1275;25610;-79
2023/06/16 03:27:23;;;;;;;16.00;14.50;;;;;;;10.79;94.16;97755.39;106844;1271;22553;-79
2023/06/16 03:29:56;;;;;;;17.80;16.10;;;;;;;10.87;94.12;97757.42;107118;1275;25371;-80
2023/06/16 03:32:25;;;;;;;18.50;16.70;;;;;;;10.92;93.95;97761.25;107126;1275;22632;-79
2023/06/16 03:34:55;;;;;;;20.80;18.90;;;;;;;10.97;93.99;97760.23;106993;1275;22662;-79
2023/06/16 03:37:23;;;;;;;22.40;20.30;;;;;;;11.02;94.10;97760.23;106980;1275;25529;-80
2023/06/16 03:39:51;;;;;;;18.40;16.80;;;;;;;11.09;94.00;97759.69;107167;1275;22531;-80
2023/06/16 03:42:19;;;;;;;19.60;17.80;;;;;;;11.17;93.82;97764.79;106973;1275;22561;-80
2023/06/16 03:44:49;;;;;;;18.40;16.80;;;;;;;11.24;93.84;97760.63;107141;1275;22566;-80
2023/06/16 03:47:19;;;;;;;19.50;17.70;;;;;;;11.40;94.51;97760.95;107090;1275;23899;-80
2023/06/16 03:49:47;;;;;;;21.40;19.30;;;;;;;11.61;95.61;97757.18;107114;1275;22557;-80
2023/06/16 03:52:15;;;;;;;21.50;19.50;;;;;;;11.81;95.08;97757.88;107105;1275;22623;-79
2023/06/16 03:54:43;;;;;;;22.10;20.20;;;;;;;11.95;95.06;97758.02;107104;1275;22564;-79
2023/06/16 03:57:13;;;;;;;21.30;19.30;;;;;;;12.14;95.24;97758.81;107120;1275;22654;-80
2023/06/16 03:59:41;;;;;;;21.30;19.20;;;;;;;12.33;94.65;97761.64;107034;1275;22646;-80
2023/06/16 04:02:10;;;;;;;21.40;17.90;;;;;;;12.44;94.28;97758.90;107066;1275;22594;-80
2023/06/16 04:04:45;;;;;;;20.80;18.80;;;;;;;12.51;93.96;97762.14;107116;1275;24753;-80
2023/06/16 04:07:13;;;;;;;23.50;21.20;;;;;;;12.58;94.08;97762.05;107138;1275;22656;-80
2023/06/16 04:09:42;;;;;;;22.60;20.80;;;;;;;12.58;94.50;97761.20;107173;1275;22532;-81
2023/06/16 04:12:11;;;;;;;20.80;18.90;;;;;;;12.54;94.95;97759.73;107006;1275;25718;-80
2023/06/16 04:14:39;;;;;;;20.10;18.20;;;;;;;12.53;95.12;97761.17;106884;1275;22555;-81
2023/06/16 04:17:08;;;;;;;19.50;17.70;;;;;;;12.56;95.13;97757.89;107187;1275;22594;-81
2023/06/16 04:19:36;;;;;;;19.50;17.80;;;;;;;12.69;95.67;97762.53;107130;1275;22741;-81
2023/06/16 04:22:05;;;;;;;19.60;17.80;;;;;;;12.92;95.86;97760.73;107086;1275;23112;-80
2023/06/16 04:24:43;;;;;;;20.80;18.90;;;;;;;13.14;95.58;97762.91;107006;1275;22552;-80
2023/06/16 04:27:11;;;;;;;21.20;19.30;;;;;;;13.31;95.18;97761.30;107129;1275;22576;-80
2023/06/16 04:29:42;;;;;;;20.60;18.50;;;;;;;13.44;94.87;97755.19;107089;1275;22574;-79
2023/06/16 04:32:13;;;;;;;18.80;17.20;;;;;;;13.56;94.95;97755.14;107081;1275;22528;-81
2023/06/16 04:34:44;;;;;;;19.50;16.10;;;;;;;13.78;95.14;97752.15;106857;1275;22530;-80
2023/06/16 04:37:14;;;;;;;18.80;17.00;;;;;;;13.97;95.31;97748.63;107111;1275;22528;-80
2023/06/16 04:39:42;;;;;;;21.00;18.80;;;;;;;14.16;94.69;97751.99;106940;1252;24235;-80
2023/06/16 04:42:13;;;;;;;22.20;19.90;;;;;;;14.31;94.68;97748.19;107112;1275;22784;-78
2023/06/16 04:44:41;;;;;;;21.90;20.10;;;;;;;14.42;93.83;97748.01;106912;1275;22719;-78
2023/06/16 04:47:10;;;;;;;21.50;19.70;;;;;;;14.49;93.84;97745.46;106991;1275;22550;-79
2023/06/16 04:49:39;;;;;;;21.50;19.70;;;;;;;14.58;93.60;97741.46;107065;1275;22575;-80
2023/06/16 04:52:07;;;;;;;19.30;17.60;;;;;;;14.63;93.59;97739.64;107079;1275;24819;-79
2023/06/16 04:54:35;;;;;;;18.90;17.30;;;;;;;14.68;93.49;97741.47;107094;1275;23252;-79
2023/06/16 04:57:07;;;;;;;21.60;19.40;;;;;;;14.75;93.33;97740.72;107051;1275;22767;-79
2023/06/16 04:59:36;;;;;;;19.70;17.90;;;;;;;14.83;93.33;97739.39;106975;1275;22512;-78
2023/06/16 05:02:05;;;;;;;22.30;20.10;;;;;;;14.89;93.04;97741.80;107074;1275;25329;-78
2023/06/16 05:04:34;;;;;;;20.70;18.70;;;;;;;14.92;92.96;97740.38;106973;1275;22529;-78
2023/06/16 05:07:03;;;;;;;18.00;16.30;;;;;;;14.96;92.97;97741.38;106997;1275;22646;-77
2023/06/16 05:09:32;;;;;;;21.10;19.20;;;;;;;15.03;92.82;97742.77;106746;1275;22580;-78
2023/06/16 05:12:00;;;;;;;22.40;20.10;;;;;;;15.11;92.80;97746.33;106753;1275;22578;-78
2023/06/16 05:14:29;;;;;;;21.00;19.20;;;;;;;15.15;92.36;97747.95;106565;1275;319624;-78
2023/06/16 05:16:57;;;;;;;29.20;26.50;;;;;;;15.18;91.92;97751.47;106738;1260;26519;-78
2023/06/16 05:19:25;;;;;;;37.20;28.90;;;;;;;15.20;91.68;97755.13;106759;1275;22820;-78
2023/06/16 05:21:58;;;;;;;30.70;27.60;;;;;;;15.20;91.09;97750.23;106755;1275;22520;-79
2023/06/16 05:24:27;;;;;;;31.50;28.40;;;;;;;15.26;91.50;97751.42;107114;1275;25386;-79
2023/06/16 05:26:56;;;;;;;32.90;29.60;;;;;;;15.31;91.23;97750.45;107050;1275;22545;-80
2023/06/16 05:29:24;;;;;;;33.30;30.20;;;;;;;15.36;91.26;97751.88;107110;1275;25329;-80
2023/06/16 05:31:52;;;;;;;33.10;29.80;;;;;;;15.38;91.10;97751.58;107071;1275;23536;-80
2023/06/16 05:34:21;;;;;;;37.20;33.70;;;;;;;15.43;91.13;97756.86;107061;1275;24367;-80
2023/06/16 05:36:50;;;;;;;35.30;31.90;;;;;;;15.49;90.69;97755.96;107160;1275;25302;-80
2023/06/16 05:39:18;;;;;;;25.70;22.30;;;;;;;15.57;90.95;97752.20;107113;1275;22675;-79
2023/06/16 05:41:48;;;;;;;28.40;22.90;;;;;;;15.84;91.67;97750.38;107127;1275;22520;-80
2023/06/16 05:44:17;;;;;;;26.70;24.10;;;;;;;15.99;90.26;97747.00;107151;1275;24357;-83
2023/06/16 05:46:45;;;;;;;27.40;24.40;;;;;;;16.05;90.40;97745.41;107120;1275;25532;-82
2023/06/16 05:49:16;;;;;;;21.60;19.60;;;;;;;16.15;90.23;97748.39;107200;1275;24254;-81
2023/06/16 05:51:45;;;;;;;18.80;17.00;;;;;;;16.51;91.95;97747.44;106943;1275;22537;-83
2023/06/16 05:54:13;;;;;;;22.40;20.10;;;;;;;16.95;90.65;97746.20;107046;1275;22681;-82
2023/06/16 05:56:41;;;;;;;19.60;17.60;;;;;;;17.29;89.70;97746.02;107170;1275;25366;-81
2023/06/16 05:59:09;;;;;;;19.90;17.70;;;;;;;17.54;89.46;97745.45;107139;1275;24447;-79
2023/06/16 06:01:38;;;;;;;23.70;16.50;;;;;;;17.78;88.57;97747.28;107574;1275;22212;-78
2023/06/16 06:04:06;;;;;;;20.20;18.30;;;;;;;17.94;88.23;97750.19;107421;1275;22522;-78
2023/06/16 06:06:34;;;;;;;18.00;16.30;;;;;;;18.07;88.21;97751.88;107077;1275;22561;-78
2023/06/16 06:09:03;;;;;;;18.70;16.60;;;;;;;18.31;87.38;97751.58;107280;1275;25332;-78
2023/06/16 06:11:31;;;;;;;18.00;16.10;;;;;;;18.53;86.87;97755.67;107074;1275;22513;-78
2023/06/16 06:13:59;;;;;;;18.60;16.80;;;;;;;18.72;85.59;97754.73;107066;1275;25530;-78
2023/06/16 06:16:30;;;;;;;19.10;16.90;;;;;;;18.78;85.37;97756.68;107147;1275;23501;-77
2023/06/16 06:18:59;;;;;;;15.80;14.30;;;;;;;18.76;85.14;97753.59;107175;1275;22575;-77
2023/06/16 06:21:27;;;;;;;17.80;15.70;;;;;;;19.01;84.29;97758.50;107239;1275;24462;-77
2023/06/16 06:23:55;;;;;;;16.90;12.50;;;;;;;19.15;83.89;97757.30;106845;1275;22820;-76
2023/06/16 06:26:23;;;;;;;15.80;12.70;;;;;;;19.33;83.98;97755.11;106673;1275;24254;-78
2023/06/16 06:28:52;;;;;;;15.50;13.90;;;;;;;19.50;83.41;97757.14;107159;1275;22517;-78
2023/06/16 06:31:20;;;;;;;15.00;12.90;;;;;;;19.55;82.15;97756.55;107062;1275;25326;-77
2023/06/16 06:33:48;;;;;;;14.20;12.80;;;;;;;19.56;82.16;97760.77;107078;1273;22644;-78
2023/06/16 06:36:21;;;;;;;15.00;11.40;;;;;;;19.73;82.12;97760.20;106807;1275;22533;-78
2023/06/16 06:38:50;;;;;;;13.10;11.60;;;;;;;19.90;81.39;97761.13;107133;1275;22601;-79
2023/06/16 06:41:19;;;;;;;11.90;10.60;;;;;;;20.06;80.00;97758.90;107178;1275;22686;-79
2023/06/16 06:43:50;;;;;;;15.30;10.40;;;;;;;20.14;78.69;97757.48;107187;1275;22519;-78
2023/06/16 06:46:38;;;;;;;11.40;9.10;;;;;;;20.25;77.56;97761.02;107162;1275;22605;-78
2023/06/16 06:49:07;;;;;;;10.90;9.30;;;;;;;20.43;78.64;97757.25;107096;1275;22540;-78
2023/06/16 06:51:36;;;;;;;11.60;10.40;;;;;;;20.45;78.62;97756.65;107131;1275;25536;-74
2023/06/16 06:54:06;;;;;;;12.80;11.40;;;;;;;20.42;77.91;97756.84;106836;1275;22657;-74
2023/06/16 06:56:34;;;;;;;11.40;10.20;;;;;;;20.38;77.77;97760.30;106885;1275;22520;-75
2023/06/16 06:59:02;;;;;;;11.40;10.20;;;;;;;20.37;77.33;97761.30;106831;1264;25390;-74
2023/06/16 07:01:30;;;;;;;14.10;10.60;;;;;;;20.37;76.98;97761.53;107456;1272;22535;-75
2023/06/16 07:03:58;;;;;;;11.70;10.50;;;;;;;20.35;76.28;97759.71;106949;1272;22786;-76
2023/06/16 07:06:26;;;;;;;13.20;10.50;;;;;;;20.29;74.64;97757.88;106934;1269;25383;-76
2023/06/16 07:08:54;;;;;;;11.90;10.80;;;;;;;20.21;75.05;97758.23;106804;1276;22759;-76
2023/06/16 07:11:26;;;;;;;13.20;11.10;;;;;;;20.18;73.05;97756.61;107024;1275;25275;-77
2023/06/16 07:13:53;;;;;;;11.90;10.70;;;;;;;20.15;71.69;97761.64;106662;1275;22522;-77
2023/06/16 07:16:21;;;;;;;12.00;10.60;;;;;;;20.08;72.23;97761.69;107020;1272;22521;-76
2023/06/16 07:18:50;;;;;;;10.40;9.40;;;;;;;20.15;72.71;97761.26;106921;1272;24190;-77
2023/06/16 07:21:18;;;;;;;12.20;9.50;;;;;;;20.40;72.88;97760.42;106914;1272;25291;-77
2023/06/16 07:23:46;;;;;;;11.90;10.70;;;;;;;20.55;69.22;97755.51;106823;1275;25399;-77
2023/06/16 07:26:14;;;;;;;12.50;10.80;;;;;;;20.56;69.98;97754.52;106851;1276;22563;-77
2023/06/16 07:28:42;;;;;;;12.70;9.30;;;;;;;20.48;69.44;97751.45;106924;1273;25325;-78
2023/06/16 07:31:11;;;;;;;11.80;9.20;;;;;;;20.36;68.62;97751.43;106911;1276;22531;-78
2023/06/16 07:33:39;;;;;;;10.60;9.60;;;;;;;20.28;70.23;97747.79;106931;1269;23891;-77
2023/06/16 07:36:07;;;;;;;10.70;9.20;;;;;;;20.30;70.45;97751.88;106931;1276;22475;-76
2023/06/16 07:38:36;;;;;;;11.10;10.00;;;;;;;20.30;69.73;97749.38;106919;1275;22992;-77
2023/06/16 07:41:06;;;;;;;11.60;10.30;;;;;;;20.25;69.01;97751.34;106820;1276;25326;-76
2023/06/16 07:43:35;;;;;;;10.00;9.10;;;;;;;20.11;68.25;97747.88;106910;1269;25258;-77
2023/06/16 07:46:03;;;;;;;12.90;9.60;;;;;;;19.97;68.29;97751.73;106901;1275;22517;-77
2023/06/16 07:48:31;;;;;;;10.60;9.60;;;;;;;19.91;67.68;97755.22;107261;1275;22544;-77
2023/06/16 07:50:59;;;;;;;11.90;9.80;;;;;;;19.77;66.55;97754.48;106902;1275;24311;-77
2023/06/16 07:53:27;;;;;;;10.70;9.60;;;;;;;19.64;67.06;97758.23;106887;1275;22518;-77
2023/06/16 07:55:55;;;;;;;13.30;9.50;;;;;;;19.60;67.32;97757.25;107068;1275;24186;-76
2023/06/16 07:58:23;;;;;;;10.60;9.50;;;;;;;19.61;67.48;97757.36;106944;1275;25179;-77
2023/06/16 08:00:51;;;;;;;10.90;9.80;;;;;;;19.55;67.52;97754.99;107029;1275;25472;-77
2023/06/16 08:03:21;;;;;;;11.90;10.60;;;;;;;19.53;67.94;97753.86;106881;1269;22627;-76
2023/06/16 08:05:49;;;;;;;11.80;9.70;;;;;;;19.58;67.82;97751.36;107308;1275;25271;-77
2023/06/16 08:08:18;;;;;;;10.50;9.50;;;;;;;19.60;67.72;97746.80;106917;1275;22534;-77
2023/06/16 08:10:46;;;;;;;10.70;9.60;;;;;;;19.62;67.83;97739.88;106939;1274;22520;-76
2023/06/16 08:13:14;;;;;;;12.00;10.80;;;;;;;19.67;68.24;97744.92;106842;1275;25274;-77
2023/06/16 08:15:42;;;;;;;12.00;10.80;;;;;;;19.75;68.59;97747.66;106898;1275;24235;-76
2023/06/16 08:18:10;;;;;;;11.60;10.50;;;;;;;19.80;67.81;97745.17;106940;1275;22511;-77
2023/06/16 08:20:38;;;;;;;11.50;10.40;;;;;;;19.77;67.89;97745.58;106956;1275;26592;-76
2023/06/16 08:23:06;;;;;;;11.70;10.50;;;;;;;19.74;67.93;97743.13;106890;1275;24311;-76
2023/06/16 08:25:34;;;;;;;12.40;10.00;;;;;;;19.76;67.20;97741.34;106928;1275;23709;-77
2023/06/16 08:28:05;;;;;;;12.70;10.80;;;;;;;19.77;66.97;97738.09;106901;1275;22651;-77
2023/06/16 08:30:34;;;;;;;11.60;10.50;;;;;;;19.79;66.74;97735.92;106983;1275;22584;-76
2023/06/16 08:33:02;;;;;;;10.70;9.80;;;;;;;19.80;66.72;97740.66;106910;1275;25466;-77
2023/06/16 08:35:30;;;;;;;9.30;8.50;;;;;;;19.90;67.44;97740.20;106993;1275;24253;-77
2023/06/16 08:37:58;;;;;;;10.30;9.20;;;;;;;20.09;67.60;97738.09;107239;1275;23896;-77
2023/06/16 08:40:26;;;;;;;10.80;9.90;;;;;;;20.28;67.18;97738.86;107299;1275;23216;-77
2023/06/16 08:42:55;;;;;;;11.80;10.60;;;;;;;20.46;67.11;97732.20;106922;1275;24030;-77
2023/06/16 08:45:23;;;;;;;8.60;7.60;;;;;;;20.56;66.73;97730.95;106925;1275;25485;-77
2023/06/16 08:47:51;;;;;;;12.00;10.90;;;;;;;20.67;66.63;97732.68;106920;1275;22699;-80
2023/06/16 08:50:23;;;;;;;10.90;9.70;;;;;;;20.70;66.01;97735.63;106962;1275;25374;-79
2023/06/16 08:52:57;;;;;;;10.10;8.80;;;;;;;20.76;66.12;97730.64;107081;1275;22775;-82
2023/06/16 08:55:29;;;;;;;12.20;10.90;;;;;;;20.81;65.96;97729.14;107070;1275;22524;-83
2023/06/16 08:57:58;;;;;;;9.30;8.00;;;;;;;20.95;65.02;97728.62;107158;1275;25205;-81
2023/06/16 09:00:30;;;;;;;11.30;9.60;;;;;;;21.12;65.19;97724.37;107063;1275;22517;-78
2023/06/16 09:02:59;;;;;;;15.20;8.80;;;;;;;21.24;64.62;97724.12;107185;1275;22547;-80
2023/06/16 09:05:30;;;;;;;16.10;11.30;;;;;;;21.39;64.73;97726.83;107284;1275;23921;-78
2023/06/16 09:08:01;;;;;;;14.80;11.40;;;;;;;21.47;64.36;97722.77;107319;1275;22781;-78
2023/06/16 09:10:35;;;;;;;13.90;10.70;;;;;;;21.49;63.74;97722.89;107337;1275;23899;-79
2023/06/16 09:13:03;;;;;;;15.20;11.00;;;;;;;21.49;63.85;97722.31;107301;1275;26642;-76
2023/06/16 09:15:33;;;;;;;11.40;10.30;;;;;;;21.43;64.07;97720.08;106881;1275;22521;-78
2023/06/16 09:18:06;;;;;;;12.10;10.50;;;;;;;21.47;63.43;97722.54;106863;1276;22521;-78
2023/06/16 09:20:39;;;;;;;18.60;10.70;;;;;;;21.48;62.76;97724.83;107073;1276;25213;-78
2023/06/16 09:23:08;;;;;;;15.40;11.10;;;;;;;21.44;62.85;97728.08;106884;1276;22564;-77
2023/06/16 09:25:38;;;;;;;18.10;15.50;;;;;;;21.28;62.97;97723.63;106689;1276;26570;-77
2023/06/16 09:28:10;;;;;;;15.40;12.50;;;;;;;21.19;62.74;97722.34;106683;1276;22571;-77
2023/06/16 09:30:38;;;;;;;17.50;15.20;;;;;;;21.17;62.50;97720.68;106864;1276;25232;-77
2023/06/16 09:33:11;;;;;;;13.00;11.80;;;;;;;21.15;62.63;97720.73;106946;1276;22647;-78
2023/06/16 09:35:41;;;;;;;13.70;10.70;;;;;;;21.00;62.69;97726.73;106865;1276;25360;-77
2023/06/16 09:38:10;;;;;;;13.10;10.20;;;;;;;20.86;62.58;97727.33;106926;1276;26627;-78
2023/06/16 09:40:39;;;;;;;12.30;10.80;;;;;;;20.76;62.62;97728.83;106898;1276;22747;-78
2023/06/16 09:43:10;;;;;;;11.30;10.00;;;;;;;20.65;62.93;97725.40;106903;1276;22530;-78
2023/06/16 09:45:38;;;;;;;10.60;9.70;;;;;;;20.58;63.23;97721.30;106883;1276;23724;-79
2023/06/16 09:48:11;;;;;;;11.10;10.00;;;;;;;20.56;63.33;97722.12;106945;1276;22647;-79
2023/06/16 09:50:40;;;;;;;13.00;10.40;;;;;;;20.59;63.56;97714.77;107216;1276;23889;-77
2023/06/16 09:53:09;;;;;;;10.50;9.60;;;;;;;20.62;63.59;97711.52;106986;1276;22552;-78
2023/06/16 09:55:40;;;;;;;13.20;9.90;;;;;;;20.63;63.44;97714.73;106946;1276;24223;-78
2023/06/16 09:58:08;;;;;;;12.10;10.80;;;;;;;20.57;63.72;97709.39;107249;1276;24222;-79
2023/06/16 10:00:36;;;;;;;11.50;10.30;;;;;;;20.62;64.17;97708.70;107218;1276;25340;-78
2023/06/16 10:03:08;;;;;;;12.60;11.30;;;;;;;20.82;64.11;97706.47;107225;1276;22541;-76
2023/06/16 10:05:37;;;;;;;12.40;11.20;;;;;;;20.96;64.03;97707.73;106985;1276;22536;-77
2023/06/16 10:08:06;;;;;;;11.90;10.80;;;;;;;20.97;64.00;97707.27;106899;1276;22567;-78
2023/06/16 10:10:41;;;;;;;12.00;10.90;;;;;;;20.96;64.14;97706.88;106944;1275;25284;-76
2023/06/16 10:13:11;;;;;;;12.00;10.80;;;;;;;20.97;64.20;97706.02;106966;1275;22521;-78
2023/06/16 10:15:42;;;;;;;12.00;10.80;;;;;;;21.06;64.75;97704.58;107310;1275;24242;-77
2023/06/16 10:18:15;;;;;;;12.90;10.60;;;;;;;21.17;64.32;97701.41;106902;1275;22546;-77
2023/06/16 10:20:45;;;;;;;11.70;10.40;;;;;;;21.28;64.38;97702.17;107088;1275;23005;-77
2023/06/16 10:23:13;;;;;;;12.80;11.50;;;;;;;21.39;64.20;97705.69;107332;1275;26003;-76
2023/06/16 10:25:44;;;;;;;12.60;11.40;;;;;;;21.46;63.76;97703.25;106917;1275;22605;-78
2023/06/16 10:28:14;;;;;;;11.80;10.50;;;;;;;21.40;63.54;97701.88;107049;1275;22678;-77
2023/06/16 10:30:43;;;;;;;10.90;9.80;;;;;;;21.39;63.72;97697.77;107110;1275;23924;-77
2023/06/16 10:33:18;;;;;;;11.90;10.80;;;;;;;21.46;63.61;97699.42;106916;1275;22626;-75
2023/06/16 10:35:57;;;;;;;11.70;10.00;;;;;;;21.54;62.74;97702.64;107072;1272;24203;-75
2023/06/16 10:39:01;;;;;;;11.20;10.10;;;;;;;21.66;62.58;97703.32;107338;1275;22624;-76
2023/06/16 10:41:29;;;;;;;10.10;9.00;;;;;;;21.83;62.37;97700.98;107315;1275;22578;-79
2023/06/16 10:44:24;;;;;;;9.50;8.60;;;;;;;21.84;61.18;97701.77;107221;1275;22539;-77
2023/06/16 10:47:12;;;;;;;9.40;8.50;;;;;;;21.80;61.24;97700.09;106876;1275;22611;-77
2023/06/16 10:49:51;;;;;;;11.80;9.00;;;;;;;21.73;61.07;97699.30;106782;1269;22636;-78
2023/06/16 10:52:28;;;;;;;9.10;8.20;;;;;;;21.72;61.16;97699.70;107183;1275;22587;-79
2023/06/16 10:54:57;;;;;;;9.00;8.10;;;;;;;21.74;61.02;97700.34;107255;1275;23901;-76
2023/06/16 10:57:25;;;;;;;8.90;8.00;;;;;;;21.84;61.35;97703.17;107046;1275;24180;-76
2023/06/16 10:59:57;;;;;;;9.90;8.10;;;;;;;21.93;60.29;97700.27;106952;1275;24267;-75
2023/06/16 11:02:32;;;;;;;9.30;8.00;;;;;;;21.92;59.68;97694.39;106892;1276;22575;-75
2023/06/16 11:05:07;;;;;;;8.70;7.90;;;;;;;22.06;59.95;97691.07;106876;1275;24228;-75
2023/06/16 11:08:08;;;;;;;10.30;6.80;;;;;;;22.27;59.96;97685.45;107012;1276;24246;-75
2023/06/16 11:10:50;;;;;;;7.80;6.70;;;;;;;22.40;57.59;97681.30;107016;1276;23518;-75
2023/06/16 11:13:21;;;;;;;8.10;7.20;;;;;;;22.47;57.96;97679.06;107263;1276;22539;-76
2023/06/16 11:15:53;;;;;;;7.60;6.90;;;;;;;22.53;56.95;97676.68;106897;1276;22576;-74
2023/06/16 11:18:26;;;;;;;7.90;6.70;;;;;;;22.64;56.04;97674.39;106813;1276;25493;-80
2023/06/16 11:21:03;;;;;;;9.10;6.80;;;;;;;22.91;56.88;97675.55;107349;1276;25223;-78
2023/06/16 11:23:31;;;;;;;8.90;7.60;;;;;;;23.07;55.88;97673.52;107315;1276;22553;-77
2023/06/16 11:26:08;;;;;;;8.30;7.30;;;;;;;23.15;55.80;97671.27;107354;1275;24253;-78